Time;durP1;ratioP1;P1;durP2;ratioP2;P2;SDS_P1;SDS_P2;PMS_P1;PMS_P2;Temp;Humidity;BMP_temperature;BMP_pressure;BME280_temperature;BME280_humidity;BME280_pressure;Samples;Min_cycle;Max_cycle;Signal;HPM_P1;HPM_P2
2021/03/21 00:00:30;;;;;;;11.13;5.13;;;3.30;99.90;;;;;;5090679;28;20414;-59
2021/03/21 00:02:56;;;;;;;13.70;5.75;;;3.30;99.90;;;;;;5090960;28;20406;-60
2021/03/21 00:05:23;;;;;;;10.70;4.75;;;4.00;99.90;;;;;;5074072;28;20882;-58
2021/03/21 00:08:00;;;;;;;10.40;4.77;;;4.40;99.90;;;;;;5091469;28;20378;-60
2021/03/21 00:10:27;;;;;;;9.02;4.70;;;3.30;99.90;;;;;;5090405;28;20418;-58
2021/03/21 00:12:52;;;;;;;10.33;5.27;;;5.00;99.90;;;;;;5091844;28;20374;-60
2021/03/21 00:15:18;;;;;;;9.77;4.90;;;3.40;99.90;;;;;;5090764;28;20401;-60
2021/03/21 00:17:44;;;;;;;9.38;4.60;;;3.50;99.90;;;;;;5089920;28;20398;-59
2021/03/21 00:20:11;;;;;;;9.57;4.50;;;3.80;99.90;;;;;;5091667;28;20390;-59
2021/03/21 00:22:37;;;;;;;10.45;4.60;;;3.20;99.90;;;;;;5091342;28;20374;-59
2021/03/21 00:25:07;;;;;;;9.82;4.90;;;3.30;99.90;;;;;;5090388;28;20391;-60
2021/03/21 00:27:33;;;;;;;8.40;4.50;;;2.90;99.90;;;;;;5091430;28;20703;-59
2021/03/21 00:29:58;;;;;;;10.00;5.00;;;4.10;99.90;;;;;;5091901;28;20883;-60
2021/03/21 00:32:24;;;;;;;10.77;4.60;;;2.80;99.90;;;;;;5089370;28;20402;-57
2021/03/21 00:34:50;;;;;;;7.88;4.28;;;2.70;99.90;;;;;;5091906;28;20457;-59
2021/03/21 00:37:15;;;;;;;9.40;4.40;;;3.80;99.90;;;;;;5090762;28;20425;-59
2021/03/21 00:39:41;;;;;;;11.13;4.90;;;4.30;99.90;;;;;;5089872;28;20725;-60
2021/03/21 00:42:07;;;;;;;8.88;4.38;;;2.80;99.90;;;;;;5091563;28;20382;-59
2021/03/21 00:44:33;;;;;;;9.45;4.65;;;2.80;99.90;;;;;;5090409;28;20444;-60
2021/03/21 00:46:58;;;;;;;10.63;4.73;;;2.70;99.90;;;;;;5090350;28;20398;-60
2021/03/21 00:49:24;;;;;;;10.13;5.00;;;2.80;99.90;;;;;;5089928;28;20413;-57
2021/03/21 00:51:50;;;;;;;10.38;4.30;;;2.80;99.90;;;;;;5090338;28;20914;-59
2021/03/21 00:54:15;;;;;;;8.47;4.50;;;2.80;99.90;;;;;;5091549;28;20382;-59
2021/03/21 00:56:41;;;;;;;9.80;4.50;;;2.80;99.90;;;;;;5088516;28;20539;-60
2021/03/21 00:59:07;;;;;;;9.40;4.07;;;2.70;99.90;;;;;;5091524;28;20378;-59
2021/03/21 01:01:33;;;;;;;7.93;3.80;;;2.90;99.90;;;;;;5088992;28;20421;-60
2021/03/21 01:04:00;;;;;;;10.45;4.20;;;3.20;99.90;;;;;;5091144;28;20874;-59
2021/03/21 01:06:26;;;;;;;10.55;4.22;;;4.40;99.90;;;;;;5089198;28;20436;-57
2021/03/21 01:08:55;;;;;;;8.80;3.90;;;3.40;99.90;;;;;;5090454;28;20447;-60
2021/03/21 01:11:32;;;;;;;8.70;4.38;;;2.80;99.90;;;;;;5089661;28;20397;-59
2021/03/21 01:13:59;;;;;;;8.35;3.90;;;2.80;99.90;;;;;;5089512;28;20398;-59
2021/03/21 01:16:28;;;;;;;10.82;5.30;;;3.00;99.90;;;;;;5090030;28;20404;-57
2021/03/21 01:18:55;;;;;;;8.77;4.30;;;3.90;99.90;;;;;;5090561;28;20475;-59
2021/03/21 01:21:24;;;;;;;9.83;4.50;;;2.80;99.90;;;;;;5091004;28;20381;-59
2021/03/21 01:23:50;;;;;;;8.80;4.80;;;4.40;99.90;;;;;;5090557;28;20363;-60
2021/03/21 01:26:18;;;;;;;11.47;4.40;;;5.00;99.90;;;;;;5090934;28;20393;-60
2021/03/21 01:28:45;;;;;;;9.60;4.70;;;3.60;99.90;;;;;;5090006;28;20942;-60
2021/03/21 01:31:13;;;;;;;12.50;5.28;;;2.90;99.90;;;;;;5090749;28;20473;-60
2021/03/21 01:33:39;;;;;;;8.65;4.93;;;3.00;99.90;;;;;;5089955;28;20375;-60
2021/03/21 01:36:10;;;;;;;9.50;4.28;;;3.80;99.90;;;;;;5090447;28;20443;-60
2021/03/21 01:38:36;;;;;;;8.90;4.70;;;3.00;99.90;;;;;;5090063;28;20461;-60
2021/03/21 01:41:04;;;;;;;9.90;5.00;;;3.60;99.90;;;;;;5090036;28;20809;-61
2021/03/21 01:43:36;;;;;;;9.57;4.65;;;4.20;99.90;;;;;;5089512;28;20378;-59
2021/03/21 01:46:02;;;;;;;8.25;4.40;;;3.30;99.90;;;;;;5090467;28;20382;-60
2021/03/21 01:48:51;;;;;;;11.05;5.20;;;3.50;99.90;;;;;;5089821;28;20465;-58
2021/03/21 01:51:27;;;;;;;10.43;4.72;;;3.40;99.90;;;;;;5090918;28;20378;-61
2021/03/21 01:54:04;;;;;;;9.60;5.07;;;3.40;99.90;;;;;;5090380;28;20413;-60
2021/03/21 01:56:32;;;;;;;11.90;4.90;;;3.40;99.90;;;;;;5089889;28;20442;-60
2021/03/21 01:59:22;;;;;;;12.35;5.20;;;3.60;99.90;;;;;;5090206;28;20414;-60
2021/03/21 02:01:53;;;;;;;11.05;5.03;;;3.30;99.90;;;;;;5089829;28;20406;-60
2021/03/21 02:04:20;;;;;;;8.57;4.28;;;3.30;99.90;;;;;;5090580;28;20370;-60
2021/03/21 02:06:59;;;;;;;8.40;4.20;;;3.30;99.90;;;;;;5089325;28;20431;-60
2021/03/21 02:09:36;;;;;;;9.20;4.30;;;3.30;99.90;;;;;;5090076;28;20422;-58
2021/03/21 02:12:23;;;;;;;10.07;5.10;;;3.90;99.90;;;;;;5090257;28;20740;-61
2021/03/21 02:15:12;;;;;;;10.05;4.68;;;3.30;99.90;;;;;;5071441;28;21044;-60
2021/03/21 02:17:56;;;;;;;9.73;5.27;;;3.30;99.90;;;;;;5089519;28;20890;-60
2021/03/21 02:20:37;;;;;;;7.93;4.43;;;5.10;99.90;;;;;;5089528;28;20887;-60
2021/03/21 02:23:34;;;;;;;9.70;4.70;;;3.50;99.90;;;;;;5089896;28;20420;-60
2021/03/21 02:26:08;;;;;;;11.02;4.45;;;3.50;99.90;;;;;;5089950;28;20875;-60
2021/03/21 02:28:36;;;;;;;10.23;4.70;;;3.50;99.90;;;;;;5088907;28;20394;-60
2021/03/21 02:31:48;;;;;;;9.00;4.85;;;3.40;99.90;;;;;;5089740;28;20378;-60
2021/03/21 02:34:23;;;;;;;11.73;5.30;;;3.40;99.90;;;;;;5084896;28;20398;-60
2021/03/21 02:37:07;;;;;;;10.05;5.20;;;5.40;99.90;;;;;;5089303;28;20758;-62
2021/03/21 02:40:00;;;;;;;10.30;5.13;;;3.30;99.90;;;;;;5089220;28;20864;-60
2021/03/21 02:42:33;;;;;;;11.40;4.77;;;3.30;99.90;;;;;;5090076;28;20382;-58
2021/03/21 02:45:14;;;;;;;8.55;4.30;;;3.40;99.90;;;;;;5090073;28;20431;-60
2021/03/21 02:47:42;;;;;;;8.60;3.90;;;3.40;99.90;;;;;;5089115;28;20385;-60
2021/03/21 02:50:18;;;;;;;10.38;4.50;;;3.20;99.90;;;;;;5090032;28;20450;-60
2021/03/21 02:52:57;;;;;;;10.80;4.40;;;3.20;99.90;;;;;;5089036;28;20399;-60
2021/03/21 02:55:31;;;;;;;9.15;4.72;;;3.10;99.90;;;;;;5089807;28;20421;-60
2021/03/21 02:58:03;;;;;;;8.25;4.38;;;3.00;99.90;;;;;;5089778;28;20560;-60
2021/03/21 03:00:34;;;;;;;10.40;4.90;;;3.00;99.90;;;;;;5088994;28;20396;-58
2021/03/21 03:03:03;;;;;;;11.60;4.80;;;3.00;99.90;;;;;;5089848;28;20559;-60
2021/03/21 03:05:38;;;;;;;11.73;4.45;;;3.00;99.90;;;;;;5089337;28;20382;-58
2021/03/21 03:08:12;;;;;;;8.98;4.80;;;4.60;99.90;;;;;;5089696;28;20367;-59
2021/03/21 03:11:15;;;;;;;8.40;4.72;;;3.20;99.90;;;;;;5089089;28;20802;-60
2021/03/21 03:14:04;;;;;;;8.30;4.75;;;3.20;99.90;;;;;;5083502;28;20390;-60
2021/03/21 03:16:51;;;;;;;9.47;4.80;;;3.30;99.90;;;;;;5071019;28;20471;-58
2021/03/21 03:19:31;;;;;;;10.20;4.75;;;3.40;99.90;;;;;;5088180;28;20393;-58
2021/03/21 03:22:19;;;;;;;8.73;4.43;;;3.40;99.90;;;;;;5089298;28;20436;-59
2021/03/21 03:25:12;;;;;;;8.80;4.28;;;3.30;99.90;;;;;;5087735;28;20398;-60
2021/03/21 03:28:00;;;;;;;9.82;4.70;;;3.40;99.90;;;;;;5086844;28;20798;-60
2021/03/21 03:31:15;;;;;;;9.60;4.90;;;3.50;99.90;;;;;;5088157;28;20423;-60
2021/03/21 03:33:41;;;;;;;10.85;4.80;;;3.40;99.90;;;;;;5081442;28;20871;-59
2021/03/21 03:36:10;;;;;;;10.77;4.30;;;5.10;99.90;;;;;;5073986;28;20891;-60
2021/03/21 03:38:38;;;;;;;8.88;4.32;;;3.30;99.90;;;;;;5091021;28;20405;-60
2021/03/21 03:41:22;;;;;;;8.85;4.55;;;3.40;99.90;;;;;;5074923;28;20378;-60
2021/03/21 03:44:07;;;;;;;8.20;4.32;;;3.50;99.90;;;;;;5089754;28;20404;-59
2021/03/21 03:46:49;;;;;;;7.53;3.90;;;3.50;99.90;;;;;;5092090;28;20400;-58
2021/03/21 03:49:31;;;;;;;10.55;4.35;;;5.70;99.90;;;;;;5091606;28;20409;-60
2021/03/21 03:52:05;;;;;;;10.38;4.05;;;3.50;99.90;;;;;;5090004;28;20410;-60
2021/03/21 03:54:56;;;;;;;8.63;4.43;;;3.50;99.90;;;;;;5090981;28;20426;-57
2021/03/21 03:57:50;;;;;;;10.07;4.47;;;3.60;99.90;;;;;;5039782;28;20405;-60
2021/03/21 04:00:32;;;;;;;10.80;4.20;;;3.50;99.90;;;;;;5070832;28;20390;-60
2021/03/21 04:03:03;;;;;;;8.00;4.35;;;3.40;99.90;;;;;;5091260;28;20414;-60
2021/03/21 04:05:40;;;;;;;8.55;4.38;;;3.30;99.90;;;;;;5092226;28;20401;-57
2021/03/21 04:08:43;;;;;;;9.80;4.25;;;3.20;99.90;;;;;;5091045;28;20400;-60
2021/03/21 04:11:12;;;;;;;8.80;4.28;;;3.20;99.90;;;;;;5085777;28;20386;-60
2021/03/21 04:13:49;;;;;;;8.60;4.07;;;3.20;99.90;;;;;;5090148;28;20424;-60
2021/03/21 04:16:22;;;;;;;9.20;4.00;;;3.30;99.90;;;;;;5091260;28;20362;-59
2021/03/21 04:18:58;;;;;;;9.13;4.38;;;3.20;99.90;;;;;;5090096;28;20398;-60
2021/03/21 04:21:52;;;;;;;8.70;4.40;;;3.70;99.90;;;;;;5090736;28;20389;-60
2021/03/21 04:24:44;;;;;;;9.30;4.65;;;3.30;99.90;;;;;;5092447;28;20386;-60
2021/03/21 04:27:17;;;;;;;8.63;4.40;;;3.50;99.90;;;;;;5091171;28;20585;-60
2021/03/21 04:29:56;;;;;;;9.30;4.50;;;3.40;99.90;;;;;;5090633;28;20453;-60
2021/03/21 04:32:48;;;;;;;10.57;4.10;;;3.30;99.90;;;;;;5092337;28;20466;-60
2021/03/21 04:35:24;;;;;;;9.15;4.20;;;5.50;99.90;;;;;;5089516;28;20398;-60
2021/03/21 04:37:56;;;;;;;9.90;4.40;;;3.40;99.90;;;;;;5091447;28;20408;-60
2021/03/21 04:40:23;;;;;;;9.37;3.87;;;4.40;99.90;;;;;;5090597;28;20480;-61
2021/03/21 04:42:57;;;;;;;9.50;4.75;;;3.80;99.90;;;;;;5089927;28;20390;-61
2021/03/21 04:45:28;;;;;;;9.07;4.50;;;3.80;99.90;;;;;;5091061;28;20390;-60
2021/03/21 04:48:04;;;;;;;9.05;4.10;;;3.90;99.90;;;;;;5089578;28;20397;-60
2021/03/21 04:50:32;;;;;;;7.85;4.13;;;3.60;99.90;;;;;;5089980;28;20441;-57
2021/03/21 04:53:02;;;;;;;9.87;4.60;;;4.20;99.90;;;;;;5091290;28;20435;-61
2021/03/21 04:55:40;;;;;;;9.30;4.30;;;5.30;99.90;;;;;;5089971;28;20933;-61
2021/03/21 04:58:17;;;;;;;8.98;4.05;;;3.30;99.90;;;;;;5091384;28;20924;-61
2021/03/21 05:00:46;;;;;;;8.50;4.20;;;3.30;99.90;;;;;;5071106;28;20724;-60
2021/03/21 05:03:34;;;;;;;7.60;3.92;;;3.40;99.90;;;;;;5091405;28;20469;-61
2021/03/21 05:06:17;;;;;;;8.07;4.28;;;3.40;99.90;;;;;;5091409;28;20401;-60
2021/03/21 05:09:05;;;;;;;7.75;3.85;;;3.50;99.90;;;;;;5088934;28;20891;-61
2021/03/21 05:11:41;;;;;;;9.60;4.40;;;3.70;99.90;;;;;;5073160;28;20423;-58
2021/03/21 05:14:19;;;;;;;9.60;4.10;;;3.70;99.90;;;;;;5091186;28;20536;-60
2021/03/21 05:17:06;;;;;;;9.15;4.25;;;3.60;99.90;;;;;;5090491;28;20421;-60
2021/03/21 05:20:03;;;;;;;8.10;3.95;;;3.70;99.90;;;;;;5090497;28;20445;-60
2021/03/21 05:22:44;;;;;;;8.32;4.10;;;3.80;99.90;;;;;;5091488;28;20370;-60
2021/03/21 05:25:29;;;;;;;9.88;4.60;;;3.70;99.90;;;;;;5091086;28;20398;-60
2021/03/21 05:28:10;;;;;;;10.15;4.32;;;3.70;99.90;;;;;;5090429;28;20418;-59
2021/03/21 05:30:38;;;;;;;8.00;3.88;;;3.70;99.90;;;;;;5090109;28;20402;-60
2021/03/21 05:33:04;;;;;;;9.00;4.10;;;3.90;99.90;;;;;;5090692;28;20383;-60
2021/03/21 05:35:33;;;;;;;8.00;3.63;;;4.40;99.90;;;;;;5090829;28;20377;-58
2021/03/21 05:38:07;;;;;;;7.80;4.00;;;3.70;99.90;;;;;;5091076;28;20393;-60
2021/03/21 05:40:48;;;;;;;8.73;3.67;;;3.80;99.90;;;;;;5090216;28;20434;-58
2021/03/21 05:43:47;;;;;;;8.05;3.55;;;3.90;99.90;;;;;;5072637;28;20386;-60
2021/03/21 05:47:03;;;;;;;8.02;4.30;;;4.00;99.90;;;;;;5090580;28;20482;-60
2021/03/21 05:49:45;;;;;;;10.30;4.10;;;3.90;99.90;;;;;;4988698;28;20561;-60
2021/03/21 05:52:34;;;;;;;6.50;3.40;;;3.80;99.90;;;;;;5040388;28;20480;-60
2021/03/21 05:55:41;;;;;;;7.03;3.65;;;3.70;99.90;;;;;;5089251;28;20420;-60
2021/03/21 05:58:13;;;;;;;6.82;3.40;;;3.70;99.90;;;;;;5090563;28;20378;-60
2021/03/21 06:01:16;;;;;;;9.20;3.50;;;3.60;99.90;;;;;;5089591;28;20425;-60
2021/03/21 06:03:54;;;;;;;6.50;3.30;;;3.70;99.90;;;;;;5089482;28;20798;-60
2021/03/21 06:06:42;;;;;;;8.40;3.58;;;3.70;99.90;;;;;;5090707;28;20373;-60
2021/03/21 06:09:26;;;;;;;7.60;3.10;;;3.70;99.90;;;;;;5090340;28;20471;-61
2021/03/21 06:11:56;;;;;;;9.35;3.47;;;3.80;99.90;;;;;;5089848;28;20468;-60
2021/03/21 06:14:46;;;;;;;6.25;2.92;;;4.20;99.90;;;;;;5090373;28;20890;-61
2021/03/21 06:17:27;;;;;;;6.20;3.15;;;3.90;99.90;;;;;;5090504;28;20384;-62
2021/03/21 06:20:07;;;;;;;6.90;3.10;;;3.90;99.90;;;;;;5089723;28;20389;-61
2021/03/21 06:22:48;;;;;;;6.97;3.30;;;3.90;99.90;;;;;;5089505;28;20390;-57
2021/03/21 06:25:43;;;;;;;6.85;3.08;;;3.90;99.90;;;;;;5090050;28;20397;-60
2021/03/21 06:28:20;;;;;;;8.52;3.38;;;4.00;99.90;;;;;;5090132;28;20397;-61
2021/03/21 06:31:04;;;;;;;8.32;3.30;;;3.90;99.90;;;;;;5089071;28;20405;-60
2021/03/21 06:33:56;;;;;;;6.65;3.00;;;3.80;99.90;;;;;;5090006;28;20776;-60
2021/03/21 06:36:34;;;;;;;6.50;3.00;;;3.80;99.90;;;;;;5089994;28;20439;-60
2021/03/21 06:39:17;;;;;;;6.97;3.08;;;3.80;99.90;;;;;;5090176;28;20883;-60
2021/03/21 06:42:21;;;;;;;7.50;3.20;;;3.90;99.90;;;;;;5088983;28;20443;-60
2021/03/21 06:45:10;;;;;;;6.35;3.10;;;3.90;99.90;;;;;;5089179;28;20382;-59
2021/03/21 06:47:51;;;;;;;8.07;3.30;;;4.00;99.90;;;;;;5055281;28;20875;-61
2021/03/21 06:50:28;;;;;;;8.68;3.35;;;4.10;99.90;;;;;;5090123;28;20492;-60
2021/03/21 06:53:12;;;;;;;6.40;3.10;;;4.10;99.90;;;;;;5087850;28;20409;-59
2021/03/21 06:55:55;;;;;;;6.85;3.10;;;5.70;99.90;;;;;;5075892;28;20443;-60
2021/03/21 06:58:58;;;;;;;6.90;3.13;;;3.90;99.90;;;;;;5087207;28;20804;-60
2021/03/21 07:01:29;;;;;;;11.10;3.35;;;3.90;99.90;;;;;;5069550;28;20380;-60
2021/03/21 07:04:14;;;;;;;7.22;3.30;;;4.40;99.90;;;;;;5080209;28;20378;-60
2021/03/21 07:07:10;;;;;;;7.00;3.30;;;4.10;99.90;;;;;;5090171;28;20380;-60
2021/03/21 07:10:23;;;;;;;9.52;3.60;;;4.20;99.90;;;;;;5087723;28;20501;-60
2021/03/21 07:13:14;;;;;;;7.80;3.30;;;4.40;99.90;;;;;;5088681;28;20888;-60
2021/03/21 07:16:11;;;;;;;6.55;2.92;;;4.30;99.90;;;;;;5086664;28;20920;-60
2021/03/21 07:18:45;;;;;;;8.55;3.40;;;4.40;99.90;;;;;;5091567;28;20389;-61
2021/03/21 07:21:43;;;;;;;6.85;3.08;;;4.40;99.90;;;;;;5088946;28;20366;-60
2021/03/21 07:24:24;;;;;;;9.35;3.28;;;4.40;99.90;;;;;;5091919;28;20423;-61
2021/03/21 07:27:19;;;;;;;7.67;3.17;;;4.40;99.90;;;;;;5090317;28;20394;-60
2021/03/21 07:30:09;;;;;;;6.82;3.00;;;4.40;99.90;;;;;;5085785;28;20413;-60
2021/03/21 07:32:35;;;;;;;10.27;3.28;;;4.40;99.90;;;;;;5092533;28;20370;-58
2021/03/21 07:35:19;;;;;;;7.30;3.17;;;4.40;99.90;;;;;;5091745;28;20408;-61
2021/03/21 07:38:25;;;;;;;6.90;2.97;;;4.50;99.90;;;;;;5092010;28;20378;-59
2021/03/21 07:41:20;;;;;;;9.27;3.42;;;4.50;99.90;;;;;;5089670;28;20410;-59
2021/03/21 07:43:46;;;;;;;7.47;3.10;;;4.60;99.90;;;;;;5091944;28;20858;-60
2021/03/21 07:46:14;;;;;;;8.10;3.30;;;4.50;99.90;;;;;;5091641;28;20398;-60
2021/03/21 07:48:46;;;;;;;8.10;3.08;;;4.40;99.90;;;;;;5091281;28;20370;-60
2021/03/21 07:51:25;;;;;;;6.13;2.90;;;4.40;99.90;;;;;;5091423;28;20401;-60
2021/03/21 07:54:26;;;;;;;6.63;2.88;;;4.40;99.90;;;;;;5079114;28;20394;-62
2021/03/21 07:56:57;;;;;;;6.63;2.70;;;4.40;99.80;;;;;;5084081;28;20398;-60
2021/03/21 07:59:26;;;;;;;6.20;2.88;;;4.40;99.80;;;;;;5091086;28;20405;-60
2021/03/21 08:01:52;;;;;;;5.83;2.73;;;5.40;99.90;;;;;;5091524;28;20438;-60
2021/03/21 08:04:35;;;;;;;7.40;3.00;;;4.50;99.60;;;;;;5079118;28;20447;-60
2021/03/21 08:07:13;;;;;;;6.45;2.80;;;4.40;99.60;;;;;;5090441;28;20382;-60
2021/03/21 08:09:39;;;;;;;6.63;2.70;;;4.40;99.70;;;;;;5089398;28;20844;-60
2021/03/21 08:12:18;;;;;;;8.88;3.25;;;5.80;99.40;;;;;;5091394;28;20396;-60
2021/03/21 08:14:46;;;;;;;7.38;2.90;;;4.30;98.50;;;;;;5090243;28;20450;-60
2021/03/21 08:17:20;;;;;;;6.60;2.80;;;4.20;97.90;;;;;;5091750;28;20432;-60
2021/03/21 08:19:47;;;;;;;8.20;2.90;;;4.30;98.30;;;;;;5089695;28;20397;-60
2021/03/21 08:22:23;;;;;;;6.13;3.15;;;6.00;99.70;;;;;;5092127;28;20413;-60
2021/03/21 08:24:52;;;;;;;8.43;3.10;;;4.40;98.30;;;;;;5089581;28;20454;-60
2021/03/21 08:27:31;;;;;;;7.90;3.15;;;4.30;97.10;;;;;;5091670;28;20481;-60
2021/03/21 08:30:10;;;;;;;7.60;3.40;;;4.20;96.70;;;;;;5071485;28;20493;-60
2021/03/21 08:33:09;;;;;;;6.95;3.30;;;4.40;98.80;;;;;;5089816;28;20401;-58
2021/03/21 08:35:35;;;;;;;8.13;3.70;;;4.60;99.30;;;;;;5090103;28;20399;-57
2021/03/21 08:38:16;;;;;;;7.55;3.95;;;5.60;99.90;;;;;;5090510;28;20397;-60
2021/03/21 08:40:43;;;;;;;7.40;3.60;;;4.90;99.90;;;;;;5089485;28;20447;-60
2021/03/21 08:43:18;;;;;;;7.53;3.60;;;4.90;99.90;;;;;;5091426;28;20390;-60
2021/03/21 08:45:46;;;;;;;7.53;3.65;;;5.10;99.90;;;;;;5090303;28;20864;-59
2021/03/21 08:48:16;;;;;;;8.38;3.90;;;5.30;99.90;;;;;;5090278;28;20429;-61
2021/03/21 08:50:51;;;;;;;7.47;3.83;;;5.30;99.90;;;;;;5090463;28;20458;-61
2021/03/21 08:53:47;;;;;;;7.47;3.80;;;5.30;99.90;;;;;;5090132;28;20412;-61
2021/03/21 08:56:34;;;;;;;7.20;3.60;;;5.20;98.40;;;;;;5090603;28;20397;-60
2021/03/21 08:59:06;;;;;;;8.50;4.45;;;5.20;97.30;;;;;;5089366;28;20408;-61
2021/03/21 09:01:33;;;;;;;8.57;4.30;;;5.20;97.70;;;;;;5070874;28;20395;-61
2021/03/21 09:04:16;;;;;;;7.75;3.90;;;5.10;97.40;;;;;;5084047;28;20400;-60
2021/03/21 09:06:47;;;;;;;7.80;4.00;;;4.90;96.80;;;;;;5090156;28;20378;-60
2021/03/21 09:09:26;;;;;;;7.63;3.92;;;4.80;97.30;;;;;;5089292;28;20414;-61
2021/03/21 09:11:59;;;;;;;10.40;4.03;;;5.30;97.50;;;;;;5089716;28;20875;-60
2021/03/21 09:14:34;;;;;;;8.55;4.20;;;4.90;96.80;;;;;;5089340;28;20977;-61
2021/03/21 09:17:06;;;;;;;8.35;4.20;;;4.90;96.90;;;;;;5090429;28;20379;-60
2021/03/21 09:19:35;;;;;;;8.70;4.60;;;6.10;97.80;;;;;;5089785;28;20406;-60
2021/03/21 09:22:38;;;;;;;10.20;4.70;;;4.90;97.30;;;;;;5090390;28;20881;-61
2021/03/21 09:25:15;;;;;;;8.13;3.70;;;4.90;97.40;;;;;;5085781;28;20937;-59
2021/03/21 09:27:43;;;;;;;7.97;3.63;;;4.90;97.30;;;;;;5071483;28;20438;-60
2021/03/21 09:30:37;;;;;;;9.27;4.10;;;5.00;97.80;;;;;;5090199;28;20443;-60
2021/03/21 09:33:11;;;;;;;9.27;4.22;;;5.10;98.10;;;;;;5088909;28;20708;-61
2021/03/21 09:35:58;;;;;;;11.02;4.60;;;6.40;98.20;;;;;;5089540;28;20857;-58
2021/03/21 09:38:28;;;;;;;9.00;4.72;;;5.10;97.80;;;;;;5089851;28;20393;-60
2021/03/21 09:41:03;;;;;;;9.40;4.05;;;5.30;97.60;;;;;;5088730;28;20406;-60
2021/03/21 09:43:32;;;;;;;8.40;4.40;;;5.30;97.80;;;;;;5090369;28;20374;-60
2021/03/21 09:46:07;;;;;;;8.70;4.70;;;5.40;98.80;;;;;;5088228;28;21016;-61
2021/03/21 09:48:38;;;;;;;9.88;4.47;;;5.60;99.60;;;;;;5090153;28;20378;-61
2021/03/21 09:51:12;;;;;;;8.37;4.37;;;7.70;99.90;;;;;;5090369;28;20480;-61
2021/03/21 09:53:38;;;;;;;10.48;4.85;;;6.10;98.60;;;;;;5089781;28;20375;-58
2021/03/21 09:56:15;;;;;;;13.27;4.60;;;6.20;98.00;;;;;;5090458;28;20440;-60
2021/03/21 09:59:00;;;;;;;9.80;4.50;;;6.30;98.00;;;;;;5089618;28;20412;-60
2021/03/21 10:01:58;;;;;;;9.15;4.55;;;6.50;98.10;;;;;;5090144;28;20381;-61
2021/03/21 10:04:46;;;;;;;9.38;4.78;;;6.60;97.90;;;;;;5071235;28;20392;-61
2021/03/21 10:07:24;;;;;;;9.40;4.90;;;6.40;97.10;;;;;;5069657;28;20380;-61
2021/03/21 10:09:50;;;;;;;9.40;4.50;;;6.30;97.50;;;;;;5069309;28;20836;-61
2021/03/21 10:12:17;;;;;;;8.48;4.75;;;6.30;97.60;;;;;;5070030;28;20400;-61
2021/03/21 10:14:49;;;;;;;10.13;5.10;;;6.40;97.30;;;;;;5068589;28;20740;-60
2021/03/21 10:17:18;;;;;;;9.63;4.20;;;6.20;97.80;;;;;;5052156;28;20451;-61
2021/03/21 10:19:51;;;;;;;12.13;5.50;;;6.10;98.60;;;;;;5051054;28;20777;-61
2021/03/21 10:22:17;;;;;;;8.73;4.63;;;6.10;99.90;;;;;;5069900;28;20841;-60
2021/03/21 10:24:48;;;;;;;10.43;4.65;;;5.80;99.90;;;;;;5069032;28;20380;-61
2021/03/21 10:27:18;;;;;;;8.98;5.00;;;5.80;99.90;;;;;;5069310;28;20392;-60
2021/03/21 10:30:07;;;;;;;10.00;4.90;;;5.70;99.90;;;;;;5069141;28;20419;-60
2021/03/21 10:32:36;;;;;;;10.98;5.22;;;5.40;99.90;;;;;;5051996;28;20765;-61
2021/03/21 10:35:03;;;;;;;9.98;5.30;;;5.20;99.90;;;;;;5069038;28;20391;-61
2021/03/21 10:38:03;;;;;;;10.18;5.60;;;5.20;99.90;;;;;;5069477;28;20368;-61
2021/03/21 10:40:29;;;;;;;11.65;5.70;;;5.20;99.90;;;;;;5069455;28;20857;-61
2021/03/21 10:43:32;;;;;;;11.77;5.57;;;5.20;99.90;;;;;;5072113;28;20418;-60
2021/03/21 10:45:58;;;;;;;10.65;5.70;;;5.30;99.90;;;;;;5072379;28;20411;-62
2021/03/21 10:48:26;;;;;;;12.40;6.18;;;5.40;99.90;;;;;;5073563;28;20445;-61
2021/03/21 10:51:02;;;;;;;13.32;6.07;;;5.70;99.90;;;;;;5072995;28;20411;-62
2021/03/21 10:53:46;;;;;;;11.70;6.32;;;5.90;99.90;;;;;;5055620;28;20742;-60
2021/03/21 10:56:21;;;;;;;10.00;5.77;;;5.90;99.90;;;;;;5073248;28;20395;-60
2021/03/21 10:59:12;;;;;;;11.40;6.07;;;6.10;99.90;;;;;;5072667;28;20750;-60
2021/03/21 11:01:40;;;;;;;10.93;5.75;;;6.10;99.90;;;;;;5073300;28;20390;-58
2021/03/21 11:04:33;;;;;;;10.40;5.90;;;6.30;99.90;;;;;;5088631;28;20378;-61
2021/03/21 11:07:18;;;;;;;10.70;6.00;;;6.60;99.90;;;;;;5092712;28;20461;-61
2021/03/21 11:10:12;;;;;;;14.52;5.60;;;6.80;99.90;;;;;;5092491;28;20810;-61
2021/03/21 11:12:40;;;;;;;10.60;5.70;;;6.70;99.90;;;;;;5090466;28;20389;-61
2021/03/21 11:15:29;;;;;;;10.40;5.50;;;6.40;99.90;;;;;;5093204;28;20410;-61
2021/03/21 11:18:05;;;;;;;13.20;6.50;;;6.50;99.90;;;;;;5092465;28;20417;-61
2021/03/21 11:20:36;;;;;;;9.93;5.75;;;6.30;99.90;;;;;;5075161;28;20801;-61
2021/03/21 11:23:12;;;;;;;13.60;5.65;;;7.60;99.90;;;;;;5093227;28;20382;-60
2021/03/21 11:25:41;;;;;;;9.40;5.57;;;6.10;99.90;;;;;;5092878;28;20451;-58
2021/03/21 11:28:24;;;;;;;11.10;5.10;;;6.20;99.90;;;;;;5091719;28;20792;-61
2021/03/21 11:30:58;;;;;;;8.65;4.55;;;6.30;99.90;;;;;;5091979;28;20923;-61
2021/03/21 11:33:34;;;;;;;10.18;4.85;;;6.30;99.90;;;;;;5092580;28;20437;-62
2021/03/21 11:36:23;;;;;;;9.63;5.03;;;6.40;99.90;;;;;;5092120;28;20382;-61
2021/03/21 11:38:51;;;;;;;10.10;4.78;;;6.30;99.90;;;;;;5091811;28;20422;-61
2021/03/21 11:41:36;;;;;;;12.07;6.00;;;6.20;99.90;;;;;;5092616;28;20385;-61
2021/03/21 11:44:31;;;;;;;8.50;5.00;;;6.30;99.90;;;;;;5091858;28;20820;-59
2021/03/21 11:47:11;;;;;;;10.05;4.68;;;6.40;99.90;;;;;;5077286;28;20429;-61
2021/03/21 11:49:38;;;;;;;8.67;4.53;;;6.00;99.90;;;;;;5090313;28;20406;-58
2021/03/21 11:52:05;;;;;;;10.05;5.40;;;5.80;99.90;;;;;;5091652;28;20378;-61
2021/03/21 11:54:34;;;;;;;11.07;5.53;;;6.00;99.90;;;;;;5090901;28;20645;-61
2021/03/21 11:57:44;;;;;;;9.52;5.05;;;6.20;99.90;;;;;;5091586;28;20489;-60
2021/03/21 12:00:34;;;;;;;8.50;4.65;;;6.30;99.90;;;;;;5085133;28;20414;-58
2021/03/21 12:03:17;;;;;;;10.93;5.18;;;6.50;99.90;;;;;;5082991;28;20386;-61
2021/03/21 12:05:44;;;;;;;8.95;4.70;;;6.40;99.90;;;;;;5091397;28;20374;-61
2021/03/21 12:08:13;;;;;;;9.57;4.38;;;6.20;99.90;;;;;;5092326;28;20435;-61
2021/03/21 12:10:41;;;;;;;10.32;4.85;;;6.10;99.90;;;;;;5091588;28;20869;-61
2021/03/21 12:13:33;;;;;;;10.15;5.00;;;6.00;99.90;;;;;;5091281;28;21326;-61
2021/03/21 12:16:00;;;;;;;9.80;5.47;;;5.90;99.90;;;;;;5073179;28;20420;-61
2021/03/21 12:18:32;;;;;;;9.55;5.05;;;6.00;99.90;;;;;;5091652;28;20382;-62
2021/03/21 12:21:18;;;;;;;10.50;5.80;;;6.10;99.90;;;;;;5091142;28;20382;-62
2021/03/21 12:23:56;;;;;;;9.70;5.28;;;6.20;99.90;;;;;;5090047;28;20394;-61
2021/03/21 12:26:28;;;;;;;10.13;5.72;;;6.10;99.90;;;;;;5091711;28;20398;-61
2021/03/21 12:29:19;;;;;;;11.88;6.10;;;6.20;99.90;;;;;;5090826;28;20418;-61
2021/03/21 12:31:45;;;;;;;12.20;6.47;;;6.30;99.90;;;;;;5089257;28;20501;-62
2021/03/21 12:34:21;;;;;;;11.80;6.00;;;4.70;99.90;;;;;;5091706;28;20934;-62
2021/03/21 12:37:25;;;;;;;11.73;6.65;;;5.90;99.90;;;;;;5090747;28;20374;-61
2021/03/21 12:40:07;;;;;;;12.90;7.00;;;5.90;99.90;;;;;;5039485;28;20394;-61
2021/03/21 12:42:37;;;;;;;13.57;6.70;;;6.10;99.90;;;;;;5091653;28;20419;-61
2021/03/21 12:45:12;;;;;;;11.90;6.43;;;6.20;99.90;;;;;;5090939;28;20388;-62
2021/03/21 12:47:41;;;;;;;13.60;7.32;;;6.40;99.90;;;;;;5091315;28;20410;-60
2021/03/21 12:50:42;;;;;;;11.15;6.45;;;6.60;99.90;;;;;;5073192;28;20429;-61
2021/03/21 12:53:21;;;;;;;12.52;6.80;;;6.50;99.90;;;;;;5091156;28;20920;-62
2021/03/21 12:55:47;;;;;;;12.77;6.20;;;6.40;99.90;;;;;;5090635;28;20398;-62
2021/03/21 12:58:13;;;;;;;15.68;7.20;;;6.70;99.90;;;;;;5073139;28;20374;-62
2021/03/21 13:00:39;;;;;;;10.93;6.22;;;7.10;99.90;;;;;;5091130;28;20397;-58
2021/03/21 13:03:06;;;;;;;12.52;6.28;;;7.00;99.90;;;;;;5082657;28;20861;-59
2021/03/21 13:05:44;;;;;;;10.60;6.03;;;6.80;99.90;;;;;;5069988;28;20880;-60
2021/03/21 13:08:10;;;;;;;11.55;6.43;;;6.90;99.90;;;;;;5070531;28;20758;-59
2021/03/21 13:10:37;;;;;;;11.93;6.40;;;6.90;99.90;;;;;;5070436;28;20411;-61
2021/03/21 13:13:05;;;;;;;11.23;6.47;;;6.60;99.90;;;;;;5069843;28;20415;-60
2021/03/21 13:15:32;;;;;;;10.50;6.20;;;6.70;99.90;;;;;;5070572;28;20472;-61
2021/03/21 13:17:57;;;;;;;15.32;7.05;;;6.90;99.90;;;;;;5069510;28;20485;-60
2021/03/21 13:20:23;;;;;;;14.00;7.15;;;7.30;99.90;;;;;;5070385;28;20383;-62
2021/03/21 13:22:49;;;;;;;11.88;6.70;;;7.20;99.90;;;;;;5069761;28;20474;-60
2021/03/21 13:25:29;;;;;;;11.27;6.40;;;7.20;99.90;;;;;;5070585;28;20474;-60
2021/03/21 13:27:57;;;;;;;11.30;5.72;;;7.40;99.90;;;;;;5069542;28;20398;-62
2021/03/21 13:30:26;;;;;;;10.10;5.90;;;7.40;99.90;;;;;;5070185;28;20419;-61
2021/03/21 13:32:53;;;;;;;12.77;7.17;;;7.40;99.90;;;;;;5069332;28;20386;-61
2021/03/21 13:35:19;;;;;;;12.00;6.78;;;7.40;99.90;;;;;;5070324;28;20907;-64
2021/03/21 13:37:45;;;;;;;13.73;7.60;;;7.30;99.90;;;;;;5069211;28;20387;-61
2021/03/21 13:40:18;;;;;;;16.25;8.40;;;7.30;99.90;;;;;;5070056;28;20387;-60
2021/03/21 13:42:44;;;;;;;16.58;9.07;;;7.10;99.90;;;;;;5069929;28;20790;-62
2021/03/21 13:45:10;;;;;;;12.02;6.78;;;7.00;99.90;;;;;;5069700;28;20467;-62